Seascout — 9HSM7 — position and weather

sailwx.info

Track history (hours):
 
Tides and Currents Weather Stations Pressure Air Temp Water Temp Dewpoint Dewpoint Depression Visibility Wind Speed Wind Dir Waves Ship Positions

Seascout

Last reported at 2017-Dec-15 23:13 UTC. Time now 2017-Dec-16 14:36 UTC.
Position N 44°21' E 037°09'.

Length 243 m; draft 13.2 m.

Type: Tanker. MMSI: 215535000.

Date/timePositionNaut miles runAvg speedWind from/ knotsBaromVisibWave heightAir tempDewpointWater temp
2017-Dec-15 23:13N 44°21' E 037°09'412.5
2017-Dec-15 22:55N 44°23' E 037°13'712.4
2017-Dec-15 22:23N 44°25' E 037°22'512.4
2017-Dec-15 22:00N 44°28' E 037°28'612.7
2017-Dec-15 21:30N 44°31' E 037°36'612.2
2017-Dec-15 21:00N 44°34' E 037°43'2 4.4
2017-Dec-15 20:30N 44°36' E 037°44'1 1.1
2017-Dec-15 20:00N 44°37' E 037°45'0 0.5
2017-Dec-15 19:30N 44°37' E 037°44'0 1.0
2017-Dec-15 19:00N 44°36' E 037°44'0 0.6
2017-Dec-15 18:30N 44°36' E 037°43'1 1.2
2017-Dec-15 18:00N 44°36' E 037°42'1 1.3
2017-Dec-15 17:30N 44°37' E 037°42'0 0.4
2017-Dec-15 17:00N 44°37' E 037°42'0 0.4
2017-Dec-15 16:30N 44°37' E 037°42'0 0.3
2017-Dec-15 16:00N 44°36' E 037°42'0 0.0
2017-Dec-15 15:30N 44°36' E 037°42'0 0.8
2017-Dec-15 15:00N 44°37' E 037°43'0 0.4
2017-Dec-15 14:30N 44°36' E 037°43'0 0.4
2017-Dec-15 14:00N 44°36' E 037°43'0 0.2
2017-Dec-15 13:30N 44°36' E 037°43'0 0.1
2017-Dec-15 13:00N 44°36' E 037°43'0 0.6
2017-Dec-15 12:29N 44°36' E 037°43'1 2.3
2017-Dec-15 12:00N 44°37' E 037°44'3 6.0
2017-Dec-15 11:30N 44°36' E 037°48'3 7.0
2017-Dec-15 11:00N 44°36' E 037°53'0 0.4
2017-Dec-15 10:29N 44°36' E 037°53'0 0.0
2017-Dec-15 09:59N 44°36' E 037°53'0 0.0
2017-Dec-15 09:29N 44°36' E 037°53'0 0.0
2017-Dec-15 08:59N 44°36' E 037°53'0 0.0
2017-Dec-15 08:29N 44°36' E 037°53'0 0.0
2017-Dec-15 07:59N 44°36' E 037°53'0 0.0
2017-Dec-15 07:29N 44°36' E 037°53'0 0.0
2017-Dec-15 06:59N 44°36' E 037°53'0 0.0
2017-Dec-15 06:29N 44°36' E 037°53'0 0.0
2017-Dec-15 05:56N 44°36' E 037°53'0 0.0
2017-Dec-15 05:29N 44°36' E 037°53'0 0.0
2017-Dec-15 04:59N 44°36' E 037°53'0 0.0
2017-Dec-15 03:53N 44°36' E 037°53'0 0.1
2017-Dec-15 02:29N 44°36' E 037°53'0 0.0
2017-Dec-15 00:59N 44°36' E 037°53'0 0.1
2017-Dec-15 00:29N 44°36' E 037°53'5 0.8
2017-Dec-14 18:31N 44°33' E 037°47'2 4.2
2017-Dec-14 18:00N 44°35' E 037°46'2 3.8
2017-Dec-14 17:30N 44°36' E 037°44'1 1.3
2017-Dec-14 17:00N 44°37' E 037°43'0 0.5
2017-Dec-14 16:30N 44°36' E 037°43'0 0.6
2017-Dec-14 16:00N 44°36' E 037°43'2 1.6
2017-Dec-14 15:00N 44°36' E 037°41'1 1.4
2017-Dec-14 14:30N 44°36' E 037°40'1 2.2
2017-Dec-14 14:00N 44°36' E 037°38'1 2.7
2017-Dec-14 13:30N 44°37' E 037°37'1 0.1
2017-Dec-13 22:37N 44°38' E 037°37'0 0.1
2017-Dec-13 22:30N 44°38' E 037°37'1 1.1
2017-Dec-13 22:00N 44°38' E 037°36'1 2.7
2017-Dec-13 21:29N 44°36' E 037°36'1 1.6
2017-Dec-13 21:00N 44°36' E 037°36'3 5.2
2017-Dec-13 20:30N 44°34' E 037°39'3 6.4
2017-Dec-13 20:00N 44°33' E 037°43'2 3.8
2017-Dec-13 19:30N 44°33' E 037°46'0 0.8
2017-Dec-13 19:00N 44°32' E 037°46'0 0.8
2017-Dec-13 18:30N 44°32' E 037°46'0 0.8
2017-Dec-13 18:00N 44°32' E 037°47'0 0.7
2017-Dec-13 17:30N 44°31' E 037°47'0 0.7
2017-Dec-13 17:00N 44°31' E 037°47'0 0.7
2017-Dec-13 16:30N 44°31' E 037°47'0 0.8
2017-Dec-13 16:00N 44°30' E 037°48'0 0.7
2017-Dec-13 15:30N 44°30' E 037°48'0 0.5
2017-Dec-13 15:00N 44°30' E 037°48'0 0.3
2017-Dec-13 14:30N 44°30' E 037°48'0 0.9
2017-Dec-13 14:00N 44°30' E 037°47'3 6.2
2017-Dec-13 13:30N 44°27' E 037°44'3 6.1
2017-Dec-13 13:00N 44°29' E 037°40'3 6.4
2017-Dec-13 12:30N 44°32' E 037°39'3 6.0
2017-Dec-13 12:00N 44°35' E 037°40'0 0.6
2017-Dec-13 11:30N 44°34' E 037°40'1 1.4
2017-Dec-13 11:00N 44°34' E 037°40'0 0.5
2017-Dec-13 10:30N 44°34' E 037°40'2 3.1
2017-Dec-13 10:00N 44°33' E 037°42'2 3.9
2017-Dec-13 09:30N 44°31' E 037°42'4 7.1
2017-Dec-13 09:00N 44°27' E 037°43'3 5.9
2017-Dec-13 08:30N 44°24' E 037°43'1 1.5
2017-Dec-13 08:00N 44°24' E 037°43'1 1.4
2017-Dec-13 07:30N 44°23' E 037°43'1 1.2
2017-Dec-13 07:00N 44°22' E 037°44'1 1.0
2017-Dec-13 06:30N 44°22' E 037°44'1 2.9
2017-Dec-13 06:00N 44°21' E 037°43'3 5.5
2017-Dec-13 05:30N 44°18' E 037°45'2 3.1
2017-Dec-13 05:00N 44°17' E 037°46'0 0.8
2017-Dec-13 04:30N 44°17' E 037°47'0 0.8
2017-Dec-13 04:00N 44°16' E 037°47'2128.5
2017-Dec-13 03:15N 44°35' E 038°01'0 0.0
2017-Dec-13 02:56N 44°35' E 038°01'2252.2
2017-Dec-13 02:30N 44°15' E 037°47'0 0.6
2017-Dec-13 02:00N 44°15' E 037°47'0 0.5
2017-Dec-13 01:30N 44°15' E 037°47'0 0.7
2017-Dec-13 00:57N 44°15' E 037°46'0 0.9
2017-Dec-13 00:26N 44°14' E 037°46'0 0.9
2017-Dec-13 00:00N 44°14' E 037°46'0 0.9
2017-Dec-12 23:30N 44°14' E 037°45'0 0.9
2017-Dec-12 23:00N 44°13' E 037°45'1 0.9
2017-Dec-12 22:26N 44°13' E 037°44'1 1.1
2017-Dec-12 21:57N 44°13' E 037°43'1 1.5
2017-Dec-12 21:30N 44°13' E 037°43'5 8.1
2017-Dec-12 20:54N 44°17' E 037°45'3 8.9
2017-Dec-12 20:30N 44°20' E 037°47'1833.6
2017-Dec-12 19:58N 44°35' E 038°01'0 0.0
2017-Dec-12 19:30N 44°35' E 038°01'4 5.7
2017-Dec-12 18:52N 44°35' E 038°06'2150.2
2017-Dec-12 18:27N 44°20' E 037°46'1 1.2
2017-Dec-12 17:47N 44°19' E 037°46'1 1.9
2017-Dec-12 17:28N 44°19' E 037°45'0 1.0
2017-Dec-12 16:59N 44°19' E 037°45'1 1.4
2017-Dec-12 16:30N 44°18' E 037°44'2141.3
2017-Dec-12 15:59N 44°35' E 038°03'1 2.4
2017-Dec-12 15:26N 44°35' E 038°01'0 0.6
2017-Dec-12 15:00N 44°35' E 038°01'0 1.0
2017-Dec-12 14:31N 44°34' E 038°01'2447.0
2017-Dec-12 14:00N 44°15' E 037°42'1 1.4
2017-Dec-12 13:30N 44°14' E 037°42'1 1.3
2017-Dec-12 13:01N 44°14' E 037°42'1 1.2
2017-Dec-12 12:30N 44°13' E 037°41'1 1.2
2017-Dec-12 12:00N 44°13' E 037°41'1 1.2
2017-Dec-12 11:30N 44°12' E 037°40'1 1.4
2017-Dec-12 10:59N 44°12' E 037°40'1 1.4
2017-Dec-12 10:31N 44°11' E 037°39'1 1.5
2017-Dec-12 10:00N 44°11' E 037°39'1 1.5
2017-Dec-12 09:29N 44°10' E 037°38'0 0.6
2017-Dec-12 09:00N 44°10' E 037°38'2 3.1
2017-Dec-12 08:29N 44°11' E 037°38'4 7.9
2017-Dec-12 07:59N 44°15' E 037°38'4 8.4
2017-Dec-12 07:30N 44°19' E 037°41'4 7.8
2017-Dec-12 07:00N 44°21' E 037°45'3 5.6
2017-Dec-12 06:30N 44°22' E 037°49'1631.7
2017-Dec-12 05:59N 44°35' E 038°02'1426.9
2017-Dec-12 05:28N 44°23' E 037°52'1 2.1
2017-Dec-12 05:01N 44°23' E 037°51'1 2.2
2017-Dec-12 04:31N 44°22' E 037°50'1 2.3
2017-Dec-12 04:00N 44°21' E 037°49'1 2.5
2017-Dec-12 03:30N 44°20' E 037°48'1 2.5
2017-Dec-12 02:59N 44°19' E 037°47'1 2.5
2017-Dec-12 02:30N 44°18' E 037°46'1 1.8
2017-Dec-12 01:59N 44°17' E 037°45'3 5.8
2017-Dec-12 01:30N 44°19' E 037°42'4 7.8
2017-Dec-12 01:00N 44°22' E 037°38'4 8.1
2017-Dec-12 00:29N 44°23' E 037°32'4 8.3
2017-Dec-12 00:00N 44°25' E 037°27'4 7.9
2017-Dec-11 23:30N 44°27' E 037°23'3 6.0
2017-Dec-11 22:59N 44°30' E 037°22'1 2.4
2017-Dec-11 22:30N 44°30' E 037°23'1 2.4
2017-Dec-11 21:59N 44°29' E 037°24'1 2.4
2017-Dec-11 21:30N 44°28' E 037°25'1 2.4
2017-Dec-11 21:00N 44°27' E 037°27'1 2.3
2017-Dec-11 20:27N 44°26' E 037°28'1 2.2
2017-Dec-11 19:58N 44°26' E 037°29'1 2.1
2017-Dec-11 19:30N 44°25' E 037°30'1 2.0
2017-Dec-11 19:00N 44°24' E 037°31'1 2.1
2017-Dec-11 18:29N 44°23' E 037°32'1 2.1
2017-Dec-11 18:00N 44°23' E 037°33'1 1.8
2017-Dec-11 17:30N 44°22' E 037°34'1 1.8
2017-Dec-11 17:00N 44°21' E 037°34'1 1.7
2017-Dec-11 16:26N 44°20' E 037°34'1 1.6
2017-Dec-11 15:57N 44°19' E 037°34'1 1.5
2017-Dec-11 15:30N 44°19' E 037°34'0 0.7
2017-Dec-11 14:58N 44°18' E 037°34'2 3.8
2017-Dec-11 14:29N 44°20' E 037°36'2 5.0
2017-Dec-11 14:00N 44°21' E 037°39'2 4.0
2017-Dec-11 13:28N 44°23' E 037°40'3 6.8
2017-Dec-11 13:00N 44°26' E 037°38'0 0.3
2017-Dec-11 12:31N 44°26' E 037°38'1 1.7
2017-Dec-11 12:01N 44°25' E 037°38'0 1.0
2017-Dec-11 11:31N 44°25' E 037°38'0 0.9
2017-Dec-11 11:01N 44°24' E 037°38'2 3.7
2017-Dec-11 10:31N 44°23' E 037°36'2 3.8
2017-Dec-11 10:00N 44°22' E 037°33'2 3.4
2017-Dec-11 09:31N 44°21' E 037°31'2 3.2
2017-Dec-11 09:00N 44°21' E 037°29'2 4.2
2017-Dec-11 08:31N 44°19' E 037°27'2 3.9
2017-Dec-11 08:00N 44°18' E 037°25'2 3.2
2017-Dec-11 07:30N 44°17' E 037°24'0 0.7
2017-Dec-11 07:00N 44°17' E 037°24'2 3.6
2017-Dec-11 06:30N 44°18' E 037°26'2 4.0
2017-Dec-11 06:00N 44°19' E 037°28'2 3.5
2017-Dec-11 05:31N 44°20' E 037°30'2 3.8
2017-Dec-11 05:00N 44°21' E 037°32'1 2.6
2017-Dec-11 04:29N 44°22' E 037°33'1 2.5
2017-Dec-11 04:00N 44°21' E 037°35'2 3.3
2017-Dec-11 03:30N 44°21' E 037°37'1 2.7
2017-Dec-11 03:01N 44°20' E 037°39'1 1.5
2017-Dec-11 02:30N 44°20' E 037°40'1 1.1
2017-Dec-11 01:59N 44°20' E 037°41'1 1.4
2017-Dec-11 01:30N 44°20' E 037°41'1 1.2
2017-Dec-11 00:59N 44°20' E 037°42'1 2.0
2017-Dec-11 00:28N 44°21' E 037°43'2 3.5
2017-Dec-11 00:01N 44°22' E 037°44'1 2.4
2017-Dec-10 23:30N 44°23' E 037°44'1 2.2
2017-Dec-10 23:00N 44°22' E 037°43'1 2.2
2017-Dec-10 22:31N 44°22' E 037°41'1 2.3
2017-Dec-10 22:00N 44°21' E 037°40'1 2.2
2017-Dec-10 21:30N 44°20' E 037°39'1 2.1
2017-Dec-10 21:00N 44°19' E 037°38'2 2.0
2017-Dec-10 20:12N 44°18' E 037°37'25105.3
2017-Dec-10 19:58N 44°36' E 038°01'0 0.0
2017-Dec-10 19:31N 44°36' E 038°01'0 0.0
2017-Dec-10 18:59N 44°36' E 038°01'2832.8
2017-Dec-10 18:07N 44°14' E 037°36'4 2.3
2017-Dec-10 16:21N 44°12' E 037°40'1 2.9
2017-Dec-10 16:01N 44°12' E 037°41'4 7.2
2017-Dec-10 15:30N 44°16' E 037°38'4 7.3
2017-Dec-10 15:00N 44°19' E 037°35'4 5.4
2017-Dec-10 14:13N 44°23' E 037°36'0 2.4
2017-Dec-10 14:00N 44°23' E 037°36'1 2.3
2017-Dec-10 13:31N 44°23' E 037°38'1 2.2
2017-Dec-10 13:00N 44°22' E 037°39'1 2.1
2017-Dec-10 12:30N 44°22' E 037°41'1 1.7
2017-Dec-10 12:00N 44°21' E 037°40'4 8.2
2017-Dec-10 11:30N 44°22' E 037°34'4 8.1
2017-Dec-10 11:01N 44°22' E 037°29'3 6.0
2017-Dec-10 10:31N 44°23' E 037°25'1 2.5
2017-Dec-10 10:00N 44°22' E 037°26'1 2.5
2017-Dec-10 09:30N 44°22' E 037°28'1 2.3
2017-Dec-10 09:00N 44°21' E 037°29'1 2.2
2017-Dec-10 08:28N 44°21' E 037°31'1 2.2
2017-Dec-10 08:00N 44°21' E 037°32'1 2.2
2017-Dec-10 07:31N 44°20' E 037°34'1 2.3
2017-Dec-10 07:01N 44°20' E 037°35'1 2.1
2017-Dec-10 06:30N 44°20' E 037°37'1 2.0
2017-Dec-10 06:00N 44°19' E 037°38'2 3.4
2017-Dec-10 05:30N 44°20' E 037°40'5 7.4
2017-Dec-10 04:50N 44°24' E 037°44'3 7.6
2017-Dec-10 04:30N 44°27' E 037°45'1 1.6
2017-Dec-10 04:00N 44°26' E 037°45'1 1.9
2017-Dec-10 03:31N 44°25' E 037°45'1 1.9
2017-Dec-10 03:01N 44°24' E 037°44'1 1.9
2017-Dec-10 02:31N 44°23' E 037°44'1 1.9
2017-Dec-10 02:00N 44°22' E 037°43'1 1.9
2017-Dec-10 01:31N 44°22' E 037°43'1 1.9
2017-Dec-10 01:01N 44°21' E 037°42'1 1.8
2017-Dec-10 00:29N 44°20' E 037°42'0 0.5
2017-Dec-09 23:54N 44°19' E 037°42'3 6.8
2017-Dec-09 23:29N 44°22' E 037°44'4 8.3
2017-Dec-09 23:01N 44°25' E 037°46'1 1.7
2017-Dec-09 22:31N 44°25' E 037°46'1 1.7
2017-Dec-09 22:01N 44°24' E 037°46'1 1.6
2017-Dec-09 21:24N 44°23' E 037°45'1 1.6
2017-Dec-09 21:00N 44°22' E 037°45'1 1.5
2017-Dec-09 20:27N 44°22' E 037°45'1 1.6
2017-Dec-09 20:00N 44°21' E 037°44'1 1.7
2017-Dec-09 19:30N 44°20' E 037°43'2 4.2
2017-Dec-09 18:59N 44°19' E 037°41'3 7.2
2017-Dec-09 18:31N 44°16' E 037°38'1 1.3
2017-Dec-09 17:59N 44°16' E 037°39'1 0.8
2017-Dec-09 16:30N 44°17' E 037°40'4 8.8
2017-Dec-09 16:00N 44°21' E 037°38'2142.2
2017-Dec-09 15:30N 44°35' E 038°01'2039.0
2017-Dec-09 14:59N 44°26' E 037°36'1 1.6
2017-Dec-09 14:30N 44°25' E 037°37'1 1.6
2017-Dec-09 14:00N 44°25' E 037°38'1 1.7
2017-Dec-09 13:30N 44°25' E 037°39'1 1.7
2017-Dec-09 13:00N 44°24' E 037°40'1 2.2
2017-Dec-09 12:31N 44°24' E 037°42'3 6.4
2017-Dec-09 12:00N 44°27' E 037°44'1 1.8
2017-Dec-09 11:30N 44°26' E 037°43'1 2.0
2017-Dec-09 11:00N 44°26' E 037°42'1 2.1
2017-Dec-09 10:30N 44°25' E 037°41'1 2.0
2017-Dec-09 10:00N 44°24' E 037°40'1 2.2
2017-Dec-09 09:30N 44°23' E 037°39'1 2.2
2017-Dec-09 09:00N 44°23' E 037°38'1 2.6
2017-Dec-09 08:30N 44°22' E 037°36'1 2.6
2017-Dec-09 08:00N 44°22' E 037°38'2 3.5
2017-Dec-09 07:30N 44°23' E 037°40'1 1.7
2017-Dec-09 07:00N 44°23' E 037°41'1932.7
2017-Dec-09 06:26N 44°35' E 038°01'1330.6
2017-Dec-09 06:00N 44°26' E 037°48'1 2.2
2017-Dec-09 05:30N 44°25' E 037°46'1 2.1
2017-Dec-09 05:00N 44°25' E 037°45'1 2.0
2017-Dec-09 04:30N 44°24' E 037°44'1 2.0
2017-Dec-09 04:00N 44°24' E 037°43'1 1.9
2017-Dec-09 03:30N 44°23' E 037°42'0 0.8
2017-Dec-09 02:57N 44°24' E 037°41'3 6.5
2017-Dec-09 02:30N 44°24' E 037°45'3 5.1
2017-Dec-09 02:00N 44°24' E 037°49'1 1.8
2017-Dec-09 01:30N 44°24' E 037°48'1 1.6
2017-Dec-09 01:00N 44°24' E 037°46'1 1.8
2017-Dec-09 00:30N 44°24' E 037°45'1 1.9
2017-Dec-09 00:00N 44°24' E 037°44'1 1.8
2017-Dec-08 23:30N 44°24' E 037°43'1 1.8
2017-Dec-08 23:00N 44°24' E 037°41'1 1.8
2017-Dec-08 22:30N 44°24' E 037°40'1 1.9
2017-Dec-08 22:00N 44°25' E 037°39'1 1.4
2017-Dec-08 21:29N 44°25' E 037°38'2 5.0
2017-Dec-08 21:00N 44°24' E 037°41'4 7.6
2017-Dec-08 20:30N 44°22' E 037°45'4 8.3
2017-Dec-08 20:00N 44°20' E 037°50'4 8.1
2017-Dec-08 19:30N 44°18' E 037°55'17 9.1
2017-Dec-08 17:36N 44°35' E 038°01'0 0.0
2017-Dec-08 17:17N 44°35' E 038°01'1625.3
2017-Dec-08 16:38N 44°21' E 037°50'0 2.2
2017-Dec-08 16:25N 44°21' E 037°49'1 2.3
2017-Dec-08 16:00N 44°21' E 037°48'1 2.3
2017-Dec-08 15:28N 44°22' E 037°46'1 2.3
2017-Dec-08 14:57N 44°22' E 037°44'1 2.2
2017-Dec-08 14:30N 44°22' E 037°43'1 2.2
2017-Dec-08 14:00N 44°23' E 037°42'1 2.2
2017-Dec-08 13:28N 44°23' E 037°40'1 2.2
2017-Dec-08 13:00N 44°24' E 037°39'2 4.9
2017-Dec-08 12:30N 44°25' E 037°37'4 8.5
2017-Dec-08 12:00N 44°29' E 037°33'1 2.3
2017-Dec-08 11:30N 44°29' E 037°32'1 1.9
2017-Dec-08 11:00N 44°30' E 037°31'3 6.1
2017-Dec-08 10:30N 44°32' E 037°35'1 1.4
2017-Dec-08 10:00N 44°31' E 037°34'1 1.4
2017-Dec-08 09:30N 44°31' E 037°35'3 6.2
2017-Dec-08 09:00N 44°33' E 037°38'0 0.7
2017-Dec-08 08:30N 44°34' E 037°39'1 1.8
2017-Dec-08 08:00N 44°33' E 037°37'1 2.0
2017-Dec-08 07:30N 44°33' E 037°36'1 1.5
2017-Dec-08 07:00N 44°32' E 037°37'3 6.6
2017-Dec-08 06:30N 44°30' E 037°40'4 8.1
2017-Dec-08 06:00N 44°27' E 037°36'612.0
2017-Dec-08 05:30N 44°24' E 037°28'510.0
2017-Dec-08 05:00N 44°22' E 037°23'5 9.3
2017-Dec-08 04:30N 44°19' E 037°17'5 9.1
2017-Dec-08 03:54N 44°17' E 037°10'  
Track history (hours):
 
Tides and Currents Weather Stations Pressure Air Temp Water Temp Dewpoint Dewpoint Depression Visibility Wind Speed Wind Dir Waves Ship Positions

Seascout

Last reported at 2017-Dec-15 23:13 UTC. Time now 2017-Dec-16 14:36 UTC.
Position N 44°21' E 037°09'.

Length 243 m; draft 13.2 m.

Type: Tanker. MMSI: 215535000.

Date/timePositionNaut miles runAvg speedWind from/ knotsBaromVisibWave heightAir tempDewpointWater temp
2017-Dec-15 23:13N 44°21' E 037°09'412.5
2017-Dec-15 22:55N 44°23' E 037°13'712.4
2017-Dec-15 22:23N 44°25' E 037°22'512.4
2017-Dec-15 22:00N 44°28' E 037°28'612.7
2017-Dec-15 21:30N 44°31' E 037°36'612.2
2017-Dec-15 21:00N 44°34' E 037°43'2 4.4
2017-Dec-15 20:30N 44°36' E 037°44'1 1.1
2017-Dec-15 20:00N 44°37' E 037°45'0 0.5
2017-Dec-15 19:30N 44°37' E 037°44'0 1.0
2017-Dec-15 19:00N 44°36' E 037°44'0 0.6
2017-Dec-15 18:30N 44°36' E 037°43'1 1.2
2017-Dec-15 18:00N 44°36' E 037°42'1 1.3
2017-Dec-15 17:30N 44°37' E 037°42'0 0.4
2017-Dec-15 17:00N 44°37' E 037°42'0 0.4
2017-Dec-15 16:30N 44°37' E 037°42'0 0.3
2017-Dec-15 16:00N 44°36' E 037°42'0 0.0
2017-Dec-15 15:30N 44°36' E 037°42'0 0.8
2017-Dec-15 15:00N 44°37' E 037°43'0 0.4
2017-Dec-15 14:30N 44°36' E 037°43'0 0.4
2017-Dec-15 14:00N 44°36' E 037°43'0 0.2
2017-Dec-15 13:30N 44°36' E 037°43'0 0.1
2017-Dec-15 13:00N 44°36' E 037°43'0 0.6
2017-Dec-15 12:29N 44°36' E 037°43'1 2.3
2017-Dec-15 12:00N 44°37' E 037°44'3 6.0
2017-Dec-15 11:30N 44°36' E 037°48'3 7.0
2017-Dec-15 11:00N 44°36' E 037°53'0 0.4
2017-Dec-15 10:29N 44°36' E 037°53'0 0.0
2017-Dec-15 09:59N 44°36' E 037°53'0 0.0
2017-Dec-15 09:29N 44°36' E 037°53'0 0.0
2017-Dec-15 08:59N 44°36' E 037°53'0 0.0
2017-Dec-15 08:29N 44°36' E 037°53'0 0.0
2017-Dec-15 07:59N 44°36' E 037°53'0 0.0
2017-Dec-15 07:29N 44°36' E 037°53'0 0.0
2017-Dec-15 06:59N 44°36' E 037°53'0 0.0
2017-Dec-15 06:29N 44°36' E 037°53'0 0.0
2017-Dec-15 05:56N 44°36' E 037°53'0 0.0
2017-Dec-15 05:29N 44°36' E 037°53'0 0.0
2017-Dec-15 04:59N 44°36' E 037°53'0 0.0
2017-Dec-15 03:53N 44°36' E 037°53'0 0.1
2017-Dec-15 02:29N 44°36' E 037°53'0 0.0
2017-Dec-15 00:59N 44°36' E 037°53'0 0.1
2017-Dec-15 00:29N 44°36' E 037°53'5 0.8
2017-Dec-14 18:31N 44°33' E 037°47'2 4.2
2017-Dec-14 18:00N 44°35' E 037°46'2 3.8
2017-Dec-14 17:30N 44°36' E 037°44'1 1.3
2017-Dec-14 17:00N 44°37' E 037°43'0 0.5
2017-Dec-14 16:30N 44°36' E 037°43'0 0.6
2017-Dec-14 16:00N 44°36' E 037°43'2 1.6
2017-Dec-14 15:00N 44°36' E 037°41'1 1.4
2017-Dec-14 14:30N 44°36' E 037°40'1 2.2
2017-Dec-14 14:00N 44°36' E 037°38'1 2.7
2017-Dec-14 13:30N 44°37' E 037°37'1 0.1
2017-Dec-13 22:37N 44°38' E 037°37'0 0.1
2017-Dec-13 22:30N 44°38' E 037°37'1 1.1
2017-Dec-13 22:00N 44°38' E 037°36'1 2.7
2017-Dec-13 21:29N 44°36' E 037°36'1 1.6
2017-Dec-13 21:00N 44°36' E 037°36'3 5.2
2017-Dec-13 20:30N 44°34' E 037°39'3 6.4
2017-Dec-13 20:00N 44°33' E 037°43'2 3.8
2017-Dec-13 19:30N 44°33' E 037°46'0 0.8
2017-Dec-13 19:00N 44°32' E 037°46'0 0.8
2017-Dec-13 18:30N 44°32' E 037°46'0 0.8
2017-Dec-13 18:00N 44°32' E 037°47'0 0.7
2017-Dec-13 17:30N 44°31' E 037°47'0 0.7
2017-Dec-13 17:00N 44°31' E 037°47'0 0.7
2017-Dec-13 16:30N 44°31' E 037°47'0 0.8
2017-Dec-13 16:00N 44°30' E 037°48'0 0.7
2017-Dec-13 15:30N 44°30' E 037°48'0 0.5
2017-Dec-13 15:00N 44°30' E 037°48'0 0.3
2017-Dec-13 14:30N 44°30' E 037°48'0 0.9
2017-Dec-13 14:00N 44°30' E 037°47'3 6.2
2017-Dec-13 13:30N 44°27' E 037°44'3 6.1
2017-Dec-13 13:00N 44°29' E 037°40'3 6.4
2017-Dec-13 12:30N 44°32' E 037°39'3 6.0
2017-Dec-13 12:00N 44°35' E 037°40'0 0.6
2017-Dec-13 11:30N 44°34' E 037°40'1 1.4
2017-Dec-13 11:00N 44°34' E 037°40'0 0.5
2017-Dec-13 10:30N 44°34' E 037°40'2 3.1
2017-Dec-13 10:00N 44°33' E 037°42'2 3.9
2017-Dec-13 09:30N 44°31' E 037°42'4 7.1
2017-Dec-13 09:00N 44°27' E 037°43'3 5.9
2017-Dec-13 08:30N 44°24' E 037°43'1 1.5
2017-Dec-13 08:00N 44°24' E 037°43'1 1.4
2017-Dec-13 07:30N 44°23' E 037°43'1 1.2
2017-Dec-13 07:00N 44°22' E 037°44'1 1.0
2017-Dec-13 06:30N 44°22' E 037°44'1 2.9
2017-Dec-13 06:00N 44°21' E 037°43'3 5.5
2017-Dec-13 05:30N 44°18' E 037°45'2 3.1
2017-Dec-13 05:00N 44°17' E 037°46'0 0.8
2017-Dec-13 04:30N 44°17' E 037°47'0 0.8
2017-Dec-13 04:00N 44°16' E 037°47'2128.5
2017-Dec-13 03:15N 44°35' E 038°01'0 0.0
2017-Dec-13 02:56N 44°35' E 038°01'2252.2
2017-Dec-13 02:30N 44°15' E 037°47'0 0.6
2017-Dec-13 02:00N 44°15' E 037°47'0 0.5
2017-Dec-13 01:30N 44°15' E 037°47'0 0.7
2017-Dec-13 00:57N 44°15' E 037°46'0 0.9
2017-Dec-13 00:26N 44°14' E 037°46'0 0.9
2017-Dec-13 00:00N 44°14' E 037°46'0 0.9
2017-Dec-12 23:30N 44°14' E 037°45'0 0.9
2017-Dec-12 23:00N 44°13' E 037°45'1 0.9
2017-Dec-12 22:26N 44°13' E 037°44'1 1.1
2017-Dec-12 21:57N 44°13' E 037°43'1 1.5
2017-Dec-12 21:30N 44°13' E 037°43'5 8.1
2017-Dec-12 20:54N 44°17' E 037°45'3 8.9
2017-Dec-12 20:30N 44°20' E 037°47'1833.6
2017-Dec-12 19:58N 44°35' E 038°01'0 0.0
2017-Dec-12 19:30N 44°35' E 038°01'4 5.7
2017-Dec-12 18:52N 44°35' E 038°06'2150.2
2017-Dec-12 18:27N 44°20' E 037°46'1 1.2
2017-Dec-12 17:47N 44°19' E 037°46'1 1.9
2017-Dec-12 17:28N 44°19' E 037°45'0 1.0
2017-Dec-12 16:59N 44°19' E 037°45'1 1.4
2017-Dec-12 16:30N 44°18' E 037°44'2141.3
2017-Dec-12 15:59N 44°35' E 038°03'1 2.4
2017-Dec-12 15:26N 44°35' E 038°01'0 0.6
2017-Dec-12 15:00N 44°35' E 038°01'0 1.0
2017-Dec-12 14:31N 44°34' E 038°01'2447.0
2017-Dec-12 14:00N 44°15' E 037°42'1 1.4
2017-Dec-12 13:30N 44°14' E 037°42'1 1.3
2017-Dec-12 13:01N 44°14' E 037°42'1 1.2
2017-Dec-12 12:30N 44°13' E 037°41'1 1.2
2017-Dec-12 12:00N 44°13' E 037°41'1 1.2
2017-Dec-12 11:30N 44°12' E 037°40'1 1.4
2017-Dec-12 10:59N 44°12' E 037°40'1 1.4
2017-Dec-12 10:31N 44°11' E 037°39'1 1.5
2017-Dec-12 10:00N 44°11' E 037°39'1 1.5
2017-Dec-12 09:29N 44°10' E 037°38'0 0.6
2017-Dec-12 09:00N 44°10' E 037°38'2 3.1
2017-Dec-12 08:29N 44°11' E 037°38'4 7.9
2017-Dec-12 07:59N 44°15' E 037°38'4 8.4
2017-Dec-12 07:30N 44°19' E 037°41'4 7.8
2017-Dec-12 07:00N 44°21' E 037°45'3 5.6
2017-Dec-12 06:30N 44°22' E 037°49'1631.7
2017-Dec-12 05:59N 44°35' E 038°02'1426.9
2017-Dec-12 05:28N 44°23' E 037°52'1 2.1
2017-Dec-12 05:01N 44°23' E 037°51'1 2.2
2017-Dec-12 04:31N 44°22' E 037°50'1 2.3
2017-Dec-12 04:00N 44°21' E 037°49'1 2.5
2017-Dec-12 03:30N 44°20' E 037°48'1 2.5
2017-Dec-12 02:59N 44°19' E 037°47'1 2.5
2017-Dec-12 02:30N 44°18' E 037°46'1 1.8
2017-Dec-12 01:59N 44°17' E 037°45'3 5.8
2017-Dec-12 01:30N 44°19' E 037°42'4 7.8
2017-Dec-12 01:00N 44°22' E 037°38'4 8.1
2017-Dec-12 00:29N 44°23' E 037°32'4 8.3
2017-Dec-12 00:00N 44°25' E 037°27'4 7.9
2017-Dec-11 23:30N 44°27' E 037°23'3 6.0
2017-Dec-11 22:59N 44°30' E 037°22'1 2.4
2017-Dec-11 22:30N 44°30' E 037°23'1 2.4
2017-Dec-11 21:59N 44°29' E 037°24'1 2.4
2017-Dec-11 21:30N 44°28' E 037°25'1 2.4
2017-Dec-11 21:00N 44°27' E 037°27'1 2.3
2017-Dec-11 20:27N 44°26' E 037°28'1 2.2
2017-Dec-11 19:58N 44°26' E 037°29'1 2.1
2017-Dec-11 19:30N 44°25' E 037°30'1 2.0
2017-Dec-11 19:00N 44°24' E 037°31'1 2.1
2017-Dec-11 18:29N 44°23' E 037°32'1 2.1
2017-Dec-11 18:00N 44°23' E 037°33'1 1.8
2017-Dec-11 17:30N 44°22' E 037°34'1 1.8
2017-Dec-11 17:00N 44°21' E 037°34'1 1.7
2017-Dec-11 16:26N 44°20' E 037°34'1 1.6
2017-Dec-11 15:57N 44°19' E 037°34'1 1.5
2017-Dec-11 15:30N 44°19' E 037°34'0 0.7
2017-Dec-11 14:58N 44°18' E 037°34'2 3.8
2017-Dec-11 14:29N 44°20' E 037°36'2 5.0
2017-Dec-11 14:00N 44°21' E 037°39'2 4.0
2017-Dec-11 13:28N 44°23' E 037°40'3 6.8
2017-Dec-11 13:00N 44°26' E 037°38'0 0.3
2017-Dec-11 12:31N 44°26' E 037°38'1 1.7
2017-Dec-11 12:01N 44°25' E 037°38'0 1.0
2017-Dec-11 11:31N 44°25' E 037°38'0 0.9
2017-Dec-11 11:01N 44°24' E 037°38'2 3.7
2017-Dec-11 10:31N 44°23' E 037°36'2 3.8
2017-Dec-11 10:00N 44°22' E 037°33'2 3.4
2017-Dec-11 09:31N 44°21' E 037°31'2 3.2
2017-Dec-11 09:00N 44°21' E 037°29'2 4.2
2017-Dec-11 08:31N 44°19' E 037°27'2 3.9
2017-Dec-11 08:00N 44°18' E 037°25'2 3.2
2017-Dec-11 07:30N 44°17' E 037°24'0 0.7
2017-Dec-11 07:00N 44°17' E 037°24'2 3.6
2017-Dec-11 06:30N 44°18' E 037°26'2 4.0
2017-Dec-11 06:00N 44°19' E 037°28'2 3.5
2017-Dec-11 05:31N 44°20' E 037°30'2 3.8
2017-Dec-11 05:00N 44°21' E 037°32'1 2.6
2017-Dec-11 04:29N 44°22' E 037°33'1 2.5
2017-Dec-11 04:00N 44°21' E 037°35'2 3.3
2017-Dec-11 03:30N 44°21' E 037°37'1 2.7
2017-Dec-11 03:01N 44°20' E 037°39'1 1.5
2017-Dec-11 02:30N 44°20' E 037°40'1 1.1
2017-Dec-11 01:59N 44°20' E 037°41'1 1.4
2017-Dec-11 01:30N 44°20' E 037°41'1 1.2
2017-Dec-11 00:59N 44°20' E 037°42'1 2.0
2017-Dec-11 00:28N 44°21' E 037°43'2 3.5
2017-Dec-11 00:01N 44°22' E 037°44'1 2.4
2017-Dec-10 23:30N 44°23' E 037°44'1 2.2
2017-Dec-10 23:00N 44°22' E 037°43'1 2.2
2017-Dec-10 22:31N 44°22' E 037°41'1 2.3
2017-Dec-10 22:00N 44°21' E 037°40'1 2.2
2017-Dec-10 21:30N 44°20' E 037°39'1 2.1
2017-Dec-10 21:00N 44°19' E 037°38'2 2.0
2017-Dec-10 20:12N 44°18' E 037°37'25105.3
2017-Dec-10 19:58N 44°36' E 038°01'0 0.0
2017-Dec-10 19:31N 44°36' E 038°01'0 0.0
2017-Dec-10 18:59N 44°36' E 038°01'2832.8
2017-Dec-10 18:07N 44°14' E 037°36'4 2.3
2017-Dec-10 16:21N 44°12' E 037°40'1 2.9
2017-Dec-10 16:01N 44°12' E 037°41'4 7.2
2017-Dec-10 15:30N 44°16' E 037°38'4 7.3
2017-Dec-10 15:00N 44°19' E 037°35'4 5.4
2017-Dec-10 14:13N 44°23' E 037°36'0 2.4
2017-Dec-10 14:00N 44°23' E 037°36'1 2.3
2017-Dec-10 13:31N 44°23' E 037°38'1 2.2
2017-Dec-10 13:00N 44°22' E 037°39'1 2.1
2017-Dec-10 12:30N 44°22' E 037°41'1 1.7
2017-Dec-10 12:00N 44°21' E 037°40'4 8.2
2017-Dec-10 11:30N 44°22' E 037°34'4 8.1
2017-Dec-10 11:01N 44°22' E 037°29'3 6.0
2017-Dec-10 10:31N 44°23' E 037°25'1 2.5
2017-Dec-10 10:00N 44°22' E 037°26'1 2.5
2017-Dec-10 09:30N 44°22' E 037°28'1 2.3
2017-Dec-10 09:00N 44°21' E 037°29'1 2.2
2017-Dec-10 08:28N 44°21' E 037°31'1 2.2
2017-Dec-10 08:00N 44°21' E 037°32'1 2.2
2017-Dec-10 07:31N 44°20' E 037°34'1 2.3
2017-Dec-10 07:01N 44°20' E 037°35'1 2.1
2017-Dec-10 06:30N 44°20' E 037°37'1 2.0
2017-Dec-10 06:00N 44°19' E 037°38'2 3.4
2017-Dec-10 05:30N 44°20' E 037°40'5 7.4
2017-Dec-10 04:50N 44°24' E 037°44'3 7.6
2017-Dec-10 04:30N 44°27' E 037°45'1 1.6
2017-Dec-10 04:00N 44°26' E 037°45'1 1.9
2017-Dec-10 03:31N 44°25' E 037°45'1 1.9
2017-Dec-10 03:01N 44°24' E 037°44'1 1.9
2017-Dec-10 02:31N 44°23' E 037°44'1 1.9
2017-Dec-10 02:00N 44°22' E 037°43'1 1.9
2017-Dec-10 01:31N 44°22' E 037°43'1 1.9
2017-Dec-10 01:01N 44°21' E 037°42'1 1.8
2017-Dec-10 00:29N 44°20' E 037°42'0 0.5
2017-Dec-09 23:54N 44°19' E 037°42'3 6.8
2017-Dec-09 23:29N 44°22' E 037°44'4 8.3
2017-Dec-09 23:01N 44°25' E 037°46'1 1.7
2017-Dec-09 22:31N 44°25' E 037°46'1 1.7
2017-Dec-09 22:01N 44°24' E 037°46'1 1.6
2017-Dec-09 21:24N 44°23' E 037°45'1 1.6
2017-Dec-09 21:00N 44°22' E 037°45'1 1.5
2017-Dec-09 20:27N 44°22' E 037°45'1 1.6
2017-Dec-09 20:00N 44°21' E 037°44'1 1.7
2017-Dec-09 19:30N 44°20' E 037°43'2 4.2
2017-Dec-09 18:59N 44°19' E 037°41'3 7.2
2017-Dec-09 18:31N 44°16' E 037°38'1 1.3
2017-Dec-09 17:59N 44°16' E 037°39'1 0.8
2017-Dec-09 16:30N 44°17' E 037°40'4 8.8
2017-Dec-09 16:00N 44°21' E 037°38'2142.2
2017-Dec-09 15:30N 44°35' E 038°01'2039.0
2017-Dec-09 14:59N 44°26' E 037°36'1 1.6
2017-Dec-09 14:30N 44°25' E 037°37'1 1.6
2017-Dec-09 14:00N 44°25' E 037°38'1 1.7
2017-Dec-09 13:30N 44°25' E 037°39'1 1.7
2017-Dec-09 13:00N 44°24' E 037°40'1 2.2
2017-Dec-09 12:31N 44°24' E 037°42'3 6.4
2017-Dec-09 12:00N 44°27' E 037°44'1 1.8
2017-Dec-09 11:30N 44°26' E 037°43'1 2.0
2017-Dec-09 11:00N 44°26' E 037°42'1 2.1
2017-Dec-09 10:30N 44°25' E 037°41'1 2.0
2017-Dec-09 10:00N 44°24' E 037°40'1 2.2
2017-Dec-09 09:30N 44°23' E 037°39'1 2.2
2017-Dec-09 09:00N 44°23' E 037°38'1 2.6
2017-Dec-09 08:30N 44°22' E 037°36'1 2.6
2017-Dec-09 08:00N 44°22' E 037°38'2 3.5
2017-Dec-09 07:30N 44°23' E 037°40'1 1.7
2017-Dec-09 07:00N 44°23' E 037°41'1932.7
2017-Dec-09 06:26N 44°35' E 038°01'1330.6
2017-Dec-09 06:00N 44°26' E 037°48'1 2.2
2017-Dec-09 05:30N 44°25' E 037°46'1 2.1
2017-Dec-09 05:00N 44°25' E 037°45'1 2.0
2017-Dec-09 04:30N 44°24' E 037°44'1 2.0
2017-Dec-09 04:00N 44°24' E 037°43'1 1.9
2017-Dec-09 03:30N 44°23' E 037°42'0 0.8
2017-Dec-09 02:57N 44°24' E 037°41'3 6.5
2017-Dec-09 02:30N 44°24' E 037°45'3 5.1
2017-Dec-09 02:00N 44°24' E 037°49'1 1.8
2017-Dec-09 01:30N 44°24' E 037°48'1 1.6
2017-Dec-09 01:00N 44°24' E 037°46'1 1.8
2017-Dec-09 00:30N 44°24' E 037°45'1 1.9
2017-Dec-09 00:00N 44°24' E 037°44'1 1.8
2017-Dec-08 23:30N 44°24' E 037°43'1 1.8
2017-Dec-08 23:00N 44°24' E 037°41'1 1.8
2017-Dec-08 22:30N 44°24' E 037°40'1 1.9
2017-Dec-08 22:00N 44°25' E 037°39'1 1.4
2017-Dec-08 21:29N 44°25' E 037°38'2 5.0
2017-Dec-08 21:00N 44°24' E 037°41'4 7.6
2017-Dec-08 20:30N 44°22' E 037°45'4 8.3
2017-Dec-08 20:00N 44°20' E 037°50'4 8.1
2017-Dec-08 19:30N 44°18' E 037°55'17 9.1
2017-Dec-08 17:36N 44°35' E 038°01'0 0.0
2017-Dec-08 17:17N 44°35' E 038°01'1625.3
2017-Dec-08 16:38N 44°21' E 037°50'0 2.2
2017-Dec-08 16:25N 44°21' E 037°49'1 2.3
2017-Dec-08 16:00N 44°21' E 037°48'1 2.3
2017-Dec-08 15:28N 44°22' E 037°46'1 2.3
2017-Dec-08 14:57N 44°22' E 037°44'1 2.2
2017-Dec-08 14:30N 44°22' E 037°43'1 2.2
2017-Dec-08 14:00N 44°23' E 037°42'1 2.2
2017-Dec-08 13:28N 44°23' E 037°40'1 2.2
2017-Dec-08 13:00N 44°24' E 037°39'2 4.9
2017-Dec-08 12:30N 44°25' E 037°37'4 8.5
2017-Dec-08 12:00N 44°29' E 037°33'1 2.3
2017-Dec-08 11:30N 44°29' E 037°32'1 1.9
2017-Dec-08 11:00N 44°30' E 037°31'3 6.1
2017-Dec-08 10:30N 44°32' E 037°35'1 1.4
2017-Dec-08 10:00N 44°31' E 037°34'1 1.4
2017-Dec-08 09:30N 44°31' E 037°35'3 6.2
2017-Dec-08 09:00N 44°33' E 037°38'0 0.7
2017-Dec-08 08:30N 44°34' E 037°39'1 1.8
2017-Dec-08 08:00N 44°33' E 037°37'1 2.0
2017-Dec-08 07:30N 44°33' E 037°36'1 1.5
2017-Dec-08 07:00N 44°32' E 037°37'3 6.6
2017-Dec-08 06:30N 44°30' E 037°40'4 8.1
2017-Dec-08 06:00N 44°27' E 037°36'612.0
2017-Dec-08 05:30N 44°24' E 037°28'510.0
2017-Dec-08 05:00N 44°22' E 037°23'5 9.3
2017-Dec-08 04:30N 44°19' E 037°17'5 9.1
2017-Dec-08 03:54N 44°17' E 037°10'  

Dump ship's entire track history